Time;durP1;ratioP1;P1;durP2;ratioP2;P2;SDS_P1;SDS_P2;PMS_P1;PMS_P2;Temp;Humidity;BMP_temperature;BMP_pressure;BME280_temperature;BME280_humidity;BME280_pressure;Samples;Min_cycle;Max_cycle;Signal;HPM_P1;HPM_P2
2022/07/13 00:01:06;;;;;;;0.17;0.17;;;;;;;;;;5030320;28;20053;-68
2022/07/13 00:03:36;;;;;;;0.10;0.10;;;;;;;;;;5019373;28;20073;-68
2022/07/13 00:06:07;;;;;;;0.00;0.00;;;;;;;;;;5028073;28;20121;-68
2022/07/13 00:08:36;;;;;;;0.05;0.05;;;;;;;;;;5014548;28;20164;-68
2022/07/13 00:11:07;;;;;;;0.10;0.10;;;;;;;;;;5029860;28;20046;-68
2022/07/13 00:13:35;;;;;;;0.30;0.30;;;;;;;;;;5029469;28;20532;-68
2022/07/13 00:16:07;;;;;;;0.05;0.05;;;;;;;;;;5027146;28;20058;-68
2022/07/13 00:18:37;;;;;;;0.10;0.10;;;;;;;;;;5030110;28;20072;-68
2022/07/13 00:21:08;;;;;;;0.60;0.60;;;;;;;;;;5029704;28;20042;-68
2022/07/13 00:23:37;;;;;;;0.22;0.17;;;;;;;;;;5029439;28;20104;-69
2022/07/13 00:26:09;;;;;;;0.15;0.15;;;;;;;;;;5026559;28;20041;-68
2022/07/13 00:28:37;;;;;;;0.43;0.30;;;;;;;;;;5030180;28;20091;-68
2022/07/13 00:31:05;;;;;;;0.20;0.20;;;;;;;;;;5029054;28;20085;-68
2022/07/13 00:33:34;;;;;;;0.10;0.10;;;;;;;;;;5029940;28;20120;-69
2022/07/13 00:36:06;;;;;;;0.20;0.20;;;;;;;;;;5019115;28;20049;-69
2022/07/13 00:38:36;;;;;;;0.55;0.55;;;;;;;;;;5029346;28;20053;-69
2022/07/13 00:41:08;;;;;;;0.00;0.00;;;;;;;;;;5029720;28;20128;-68
2022/07/13 00:43:36;;;;;;;0.10;0.10;;;;;;;;;;5029294;28;20124;-68
2022/07/13 00:46:07;;;;;;;0.52;0.40;;;;;;;;;;5026039;28;20133;-68
2022/07/13 00:48:36;;;;;;;0.08;0.08;;;;;;;;;;5027703;28;20069;-69
2022/07/13 00:51:08;;;;;;;0.10;0.10;;;;;;;;;;5028676;28;20049;-68
2022/07/13 00:53:39;;;;;;;2.25;0.50;;;;;;;;;;5027744;28;20087;-68
2022/07/13 00:56:07;;;;;;;0.20;0.20;;;;;;;;;;5021670;28;20091;-69
2022/07/13 00:58:36;;;;;;;0.10;0.10;;;;;;;;;;5021180;28;20125;-68
2022/07/13 01:01:07;;;;;;;0.30;0.30;;;;;;;;;;5024114;28;20037;-69
2022/07/13 01:03:35;;;;;;;0.43;0.43;;;;;;;;;;5031348;28;20045;-69
2022/07/13 01:06:09;;;;;;;0.28;0.22;;;;;;;;;;5032287;28;20459;-68
2022/07/13 01:08:37;;;;;;;0.30;0.30;;;;;;;;;;4980922;28;20098;-68
2022/07/13 01:11:06;;;;;;;0.10;0.10;;;;;;;;;;4989828;28;20048;-68
2022/07/13 01:13:35;;;;;;;0.20;0.20;;;;;;;;;;4992487;28;20133;-68
2022/07/13 01:16:06;;;;;;;0.10;0.10;;;;;;;;;;4988580;28;20077;-69
2022/07/13 01:18:34;;;;;;;1.33;0.65;;;;;;;;;;4988696;28;20061;-68
2022/07/13 01:21:06;;;;;;;0.22;0.22;;;;;;;;;;4987028;28;20043;-70
2022/07/13 01:23:36;;;;;;;0.73;0.55;;;;;;;;;;4990621;28;20046;-69
2022/07/13 01:26:07;;;;;;;0.25;0.10;;;;;;;;;;4985520;28;20077;-68
2022/07/13 01:28:35;;;;;;;0.00;0.00;;;;;;;;;;4991876;28;20537;-69
2022/07/13 01:31:07;;;;;;;0.60;0.60;;;;;;;;;;4990844;28;20151;-68
2022/07/13 01:33:35;;;;;;;0.28;0.28;;;;;;;;;;4989655;28;20034;-72
2022/07/13 01:36:07;;;;;;;1.17;0.30;;;;;;;;;;4991270;28;20136;-68
2022/07/13 01:38:36;;;;;;;0.30;0.30;;;;;;;;;;4990738;28;20085;-68
2022/07/13 01:41:08;;;;;;;0.32;0.22;;;;;;;;;;5033018;28;20138;-68
2022/07/13 01:43:37;;;;;;;0.25;0.25;;;;;;;;;;5033717;28;20128;-68
2022/07/13 01:46:08;;;;;;;0.10;0.10;;;;;;;;;;5030411;28;20049;-69
2022/07/13 01:48:36;;;;;;;0.10;0.10;;;;;;;;;;5018257;28;20049;-68
2022/07/13 01:51:08;;;;;;;0.10;0.10;;;;;;;;;;5032777;28;20132;-68
2022/07/13 01:53:43;;;;;;;0.10;0.10;;;;;;;;;;5024846;28;20045;-68
2022/07/13 01:56:11;;;;;;;5.07;0.85;;;;;;;;;;5028977;28;20068;-69
2022/07/13 01:58:40;;;;;;;0.10;0.10;;;;;;;;;;5033998;28;20117;-68
2022/07/13 02:01:08;;;;;;;0.20;0.20;;;;;;;;;;5031938;28;20092;-72
2022/07/13 02:03:37;;;;;;;0.32;0.32;;;;;;;;;;5032219;28;20460;-69
2022/07/13 02:06:08;;;;;;;0.40;0.40;;;;;;;;;;5031360;28;20033;-69
2022/07/13 02:08:37;;;;;;;0.13;0.13;;;;;;;;;;5032279;28;20132;-70
2022/07/13 02:11:15;;;;;;;0.25;0.17;;;;;;;;;;5031813;28;20041;-68
2022/07/13 02:13:44;;;;;;;0.47;0.20;;;;;;;;;;5031625;28;20139;-68
2022/07/13 02:16:12;;;;;;;0.17;0.17;;;;;;;;;;5029384;28;20084;-68
2022/07/13 02:18:41;;;;;;;0.22;0.22;;;;;;;;;;5032221;28;20038;-68
2022/07/13 02:21:10;;;;;;;0.45;0.30;;;;;;;;;;5032959;28;20049;-72
2022/07/13 02:23:39;;;;;;;0.10;0.10;;;;;;;;;;5032257;28;20041;-70
2022/07/13 02:26:07;;;;;;;0.10;0.10;;;;;;;;;;5029188;28;20163;-69
2022/07/13 02:28:37;;;;;;;0.10;0.10;;;;;;;;;;5031556;28;20576;-68
2022/07/13 02:31:06;;;;;;;0.05;0.05;;;;;;;;;;5033255;28;20041;-68
2022/07/13 02:33:34;;;;;;;0.30;0.30;;;;;;;;;;5031149;28;20046;-68
2022/07/13 02:36:05;;;;;;;0.50;0.30;;;;;;;;;;5032928;28;20120;-68
2022/07/13 02:38:34;;;;;;;0.10;0.10;;;;;;;;;;5029089;28;20128;-70
2022/07/13 02:41:04;;;;;;;0.13;0.13;;;;;;;;;;5031407;28;20487;-68
2022/07/13 02:43:33;;;;;;;1.67;0.40;;;;;;;;;;5032150;28;20069;-68
2022/07/13 02:46:05;;;;;;;0.20;0.20;;;;;;;;;;5030916;28;20065;-68
2022/07/13 02:48:34;;;;;;;0.30;0.30;;;;;;;;;;5030903;28;20041;-70
2022/07/13 02:51:05;;;;;;;0.30;0.30;;;;;;;;;;5031242;28;20124;-68
2022/07/13 02:53:33;;;;;;;0.13;0.13;;;;;;;;;;5031566;28;20125;-68
2022/07/13 02:56:01;;;;;;;0.20;0.20;;;;;;;;;;5029280;28;20076;-68
2022/07/13 02:58:33;;;;;;;0.00;0.00;;;;;;;;;;5030236;28;20041;-68
2022/07/13 03:01:06;;;;;;;0.20;0.20;;;;;;;;;;5031437;28;20046;-68
2022/07/13 03:03:34;;;;;;;0.10;0.10;;;;;;;;;;5025310;28;20049;-69
2022/07/13 03:06:06;;;;;;;0.73;0.25;;;;;;;;;;5029954;28;20158;-69
2022/07/13 03:08:34;;;;;;;0.30;0.30;;;;;;;;;;5031132;28;20057;-70
2022/07/13 03:11:05;;;;;;;0.10;0.10;;;;;;;;;;5031686;28;20053;-68
2022/07/13 03:13:33;;;;;;;0.28;0.28;;;;;;;;;;5030545;28;20477;-68
2022/07/13 03:16:06;;;;;;;0.30;0.30;;;;;;;;;;5019573;28;20053;-68
2022/07/13 03:18:34;;;;;;;0.10;0.10;;;;;;;;;;5026183;28;20046;-69
2022/07/13 03:21:05;;;;;;;0.10;0.10;;;;;;;;;;5031343;28;20065;-68
2022/07/13 03:23:33;;;;;;;0.43;0.20;;;;;;;;;;5031382;28;20136;-68
2022/07/13 03:26:04;;;;;;;0.10;0.10;;;;;;;;;;5031275;28;20109;-68
2022/07/13 03:28:33;;;;;;;0.10;0.10;;;;;;;;;;5027937;28;20092;-69
2022/07/13 03:31:05;;;;;;;0.15;0.15;;;;;;;;;;5029581;28;20073;-68
2022/07/13 03:33:34;;;;;;;0.10;0.10;;;;;;;;;;5030722;28;20037;-69
2022/07/13 03:36:05;;;;;;;0.30;0.30;;;;;;;;;;5030809;28;20078;-69
2022/07/13 03:38:33;;;;;;;0.45;0.20;;;;;;;;;;5028516;28;20060;-68
2022/07/13 03:41:04;;;;;;;0.00;0.00;;;;;;;;;;5030179;28;20495;-68
2022/07/13 03:43:33;;;;;;;0.10;0.10;;;;;;;;;;5028862;28;20073;-68
2022/07/13 03:46:06;;;;;;;0.22;0.22;;;;;;;;;;5031728;28;20124;-69
2022/07/13 03:48:34;;;;;;;0.10;0.10;;;;;;;;;;5029420;28;20052;-69
2022/07/13 03:51:05;;;;;;;0.10;0.10;;;;;;;;;;5032062;28;20140;-68
2022/07/13 03:53:34;;;;;;;0.28;0.20;;;;;;;;;;5029387;28;20080;-69
2022/07/13 03:56:05;;;;;;;0.00;0.00;;;;;;;;;;5027967;28;20556;-68
2022/07/13 03:58:34;;;;;;;0.10;0.10;;;;;;;;;;5008337;28;20081;-71
2022/07/13 04:01:06;;;;;;;0.20;0.20;;;;;;;;;;5002800;28;20468;-69
2022/07/13 04:03:35;;;;;;;0.25;0.25;;;;;;;;;;5008649;28;20123;-71
2022/07/13 04:06:06;;;;;;;0.10;0.10;;;;;;;;;;5011622;28;20050;-68
2022/07/13 04:08:34;;;;;;;0.20;0.20;;;;;;;;;;5029569;28;20124;-70
2022/07/13 04:11:06;;;;;;;0.30;0.30;;;;;;;;;;5029774;28;20073;-68
2022/07/13 04:13:34;;;;;;;0.13;0.08;;;;;;;;;;5028128;28;20121;-70
2022/07/13 04:16:08;;;;;;;0.10;0.10;;;;;;;;;;5023289;28;20081;-68
2022/07/13 04:18:37;;;;;;;0.40;0.40;;;;;;;;;;4942824;28;20587;-69
2022/07/13 04:21:07;;;;;;;0.40;0.13;;;;;;;;;;4950502;28;20200;-68
2022/07/13 04:23:35;;;;;;;0.10;0.10;;;;;;;;;;4957822;28;20222;-69
2022/07/13 04:26:06;;;;;;;0.10;0.10;;;;;;;;;;4951199;28;20098;-69
2022/07/13 04:28:35;;;;;;;0.15;0.15;;;;;;;;;;4951717;28;20154;-68
2022/07/13 04:31:07;;;;;;;0.10;0.10;;;;;;;;;;4953264;28;20134;-69
2022/07/13 04:33:35;;;;;;;0.20;0.20;;;;;;;;;;4950995;28;20069;-69
2022/07/13 04:36:09;;;;;;;0.10;0.10;;;;;;;;;;4963733;28;20050;-69
2022/07/13 04:38:37;;;;;;;0.68;0.68;;;;;;;;;;4958508;28;20469;-68
2022/07/13 04:41:06;;;;;;;0.40;0.20;;;;;;;;;;4950719;28;20118;-71
2022/07/13 04:43:34;;;;;;;0.10;0.10;;;;;;;;;;4958193;28;20130;-69
2022/07/13 04:46:06;;;;;;;0.30;0.30;;;;;;;;;;4968540;28;20129;-68
2022/07/13 04:48:35;;;;;;;0.10;0.10;;;;;;;;;;4958870;28;20059;-70
2022/07/13 04:51:06;;;;;;;0.08;0.08;;;;;;;;;;5022035;28;20080;-68
2022/07/13 04:53:35;;;;;;;0.32;0.30;;;;;;;;;;5028204;28;20042;-69
2022/07/13 04:56:06;;;;;;;0.20;0.20;;;;;;;;;;5016304;28;21878;-71
2022/07/13 04:58:35;;;;;;;0.00;0.00;;;;;;;;;;5007341;28;20078;-70
2022/07/13 05:01:07;;;;;;;0.10;0.10;;;;;;;;;;5019038;28;20536;-70
2022/07/13 05:03:55;;;;;;;0.10;0.10;;;;;;;;;;5020956;28;20050;-70
2022/07/13 05:06:23;;;;;;;0.10;0.10;;;;;;;;;;5021324;28;20046;-68
2022/07/13 05:08:53;;;;;;;0.10;0.10;;;;;;;;;;5025770;28;20050;-71
2022/07/13 05:11:21;;;;;;;0.10;0.10;;;;;;;;;;5020600;28;20621;-69
2022/07/13 05:13:49;;;;;;;0.82;0.57;;;;;;;;;;5019961;28;20048;-70
2022/07/13 05:16:20;;;;;;;0.20;0.20;;;;;;;;;;5019464;28;20045;-69
2022/07/13 05:18:48;;;;;;;0.25;0.25;;;;;;;;;;5026438;28;20509;-68
2022/07/13 05:21:17;;;;;;;0.10;0.10;;;;;;;;;;5025312;28;20161;-68
2022/07/13 05:23:45;;;;;;;0.30;0.30;;;;;;;;;;5023183;28;20497;-68
2022/07/13 05:26:13;;;;;;;0.47;0.32;;;;;;;;;;5026112;28;20053;-68
2022/07/13 05:28:42;;;;;;;0.28;0.28;;;;;;;;;;5024898;28;20077;-68
2022/07/13 05:31:10;;;;;;;0.03;0.03;;;;;;;;;;5026021;28;20076;-68
2022/07/13 05:33:40;;;;;;;0.20;0.20;;;;;;;;;;5018579;28;20052;-71
2022/07/13 05:36:09;;;;;;;0.08;0.08;;;;;;;;;;5024717;28;20489;-68
2022/07/13 05:38:37;;;;;;;0.10;0.10;;;;;;;;;;5025760;28;20071;-68
2022/07/13 05:41:06;;;;;;;0.10;0.10;;;;;;;;;;5004208;28;20053;-68
2022/07/13 05:43:35;;;;;;;0.03;0.03;;;;;;;;;;5006648;28;20060;-69
2022/07/13 05:46:06;;;;;;;0.08;0.08;;;;;;;;;;5003378;28;20257;-68
2022/07/13 05:48:36;;;;;;;0.10;0.10;;;;;;;;;;5006396;28;20088;-68
2022/07/13 05:51:08;;;;;;;0.10;0.10;;;;;;;;;;5014147;28;20561;-67
2022/07/13 05:53:56;;;;;;;0.10;0.10;;;;;;;;;;5008428;28;20061;-68
2022/07/13 05:56:25;;;;;;;0.13;0.10;;;;;;;;;;5008946;28;20151;-70
2022/07/13 05:58:54;;;;;;;0.47;0.30;;;;;;;;;;5008358;28;20046;-68
2022/07/13 06:01:22;;;;;;;0.00;0.00;;;;;;;;;;5012545;28;20141;-67
2022/07/13 06:03:51;;;;;;;0.20;0.20;;;;;;;;;;5008795;28;20480;-68
2022/07/13 06:06:20;;;;;;;0.10;0.10;;;;;;;;;;5010615;28;20128;-68
2022/07/13 06:08:49;;;;;;;0.10;0.10;;;;;;;;;;4993914;28;20133;-68
2022/07/13 06:11:17;;;;;;;0.10;0.10;;;;;;;;;;4994521;28;20121;-68
2022/07/13 06:13:46;;;;;;;0.10;0.10;;;;;;;;;;5001285;28;20078;-70
2022/07/13 06:16:14;;;;;;;0.20;0.20;;;;;;;;;;4999900;28;20129;-68
2022/07/13 06:18:43;;;;;;;0.20;0.20;;;;;;;;;;4989412;28;20396;-68
2022/07/13 06:21:11;;;;;;;0.10;0.10;;;;;;;;;;4987517;28;20058;-68
2022/07/13 06:23:41;;;;;;;0.10;0.10;;;;;;;;;;4992849;28;20050;-70
2022/07/13 06:26:11;;;;;;;0.05;0.05;;;;;;;;;;4996410;28;20536;-69
2022/07/13 06:28:40;;;;;;;0.10;0.10;;;;;;;;;;4992622;28;20409;-69
2022/07/13 06:31:08;;;;;;;0.00;0.00;;;;;;;;;;4977108;28;20551;-68
2022/07/13 06:33:37;;;;;;;0.10;0.08;;;;;;;;;;4984510;28;20090;-68
2022/07/13 06:36:06;;;;;;;0.00;0.00;;;;;;;;;;4991799;28;20839;-69
2022/07/13 06:38:34;;;;;;;0.10;0.10;;;;;;;;;;5001162;28;20132;-69
2022/07/13 06:41:06;;;;;;;0.10;0.10;;;;;;;;;;5007275;28;20081;-68
2022/07/13 06:43:35;;;;;;;0.00;0.00;;;;;;;;;;5007048;28;20347;-68
2022/07/13 06:46:07;;;;;;;0.10;0.00;;;;;;;;;;5007685;28;20064;-68
2022/07/13 06:48:36;;;;;;;0.00;0.00;;;;;;;;;;5010105;28;20043;-68
2022/07/13 06:51:08;;;;;;;0.20;0.10;;;;;;;;;;5005844;28;20504;-68
2022/07/13 06:53:37;;;;;;;0.00;0.00;;;;;;;;;;4992318;28;20050;-69
2022/07/13 06:56:10;;;;;;;0.00;0.00;;;;;;;;;;5008742;28;20497;-68
2022/07/13 06:58:38;;;;;;;0.10;0.10;;;;;;;;;;4995882;28;20053;-69
2022/07/13 07:01:07;;;;;;;0.00;0.00;;;;;;;;;;5010494;28;20108;-68
2022/07/13 07:03:36;;;;;;;0.00;0.00;;;;;;;;;;5012829;28;20387;-69
2022/07/13 07:06:07;;;;;;;0.20;0.20;;;;;;;;;;5009275;28;20093;-68
2022/07/13 07:08:35;;;;;;;0.10;0.10;;;;;;;;;;5028627;28;20116;-68
2022/07/13 07:11:07;;;;;;;0.38;0.30;;;;;;;;;;5028296;28;20088;-68
2022/07/13 07:13:37;;;;;;;0.10;0.00;;;;;;;;;;5030631;28;20136;-69
2022/07/13 07:16:05;;;;;;;0.00;0.00;;;;;;;;;;5031029;28;20055;-69
2022/07/13 07:18:35;;;;;;;0.00;0.00;;;;;;;;;;5025115;28;20103;-69
2022/07/13 07:21:06;;;;;;;0.03;0.03;;;;;;;;;;5030257;28;20069;-70
2022/07/13 07:23:35;;;;;;;0.10;0.10;;;;;;;;;;5027224;28;20045;-69
2022/07/13 07:26:07;;;;;;;0.00;0.00;;;;;;;;;;5031084;28;20136;-72
2022/07/13 07:28:37;;;;;;;0.00;0.00;;;;;;;;;;5027724;28;20052;-68
2022/07/13 07:31:06;;;;;;;0.00;0.00;;;;;;;;;;5033699;28;20168;-68
2022/07/13 07:33:34;;;;;;;0.32;0.10;;;;;;;;;;5031083;28;20048;-70
2022/07/13 07:36:06;;;;;;;0.00;0.00;;;;;;;;;;5032803;28;20042;-68
2022/07/13 07:38:35;;;;;;;0.00;0.00;;;;;;;;;;5029964;28;20049;-68
2022/07/13 07:41:08;;;;;;;0.03;0.03;;;;;;;;;;5020340;28;20056;-69
2022/07/13 07:43:38;;;;;;;0.10;0.10;;;;;;;;;;5029758;28;20045;-69
2022/07/13 07:46:07;;;;;;;0.00;0.00;;;;;;;;;;5028042;28;20053;-69
2022/07/13 07:48:35;;;;;;;0.10;0.05;;;;;;;;;;5030822;28;20049;-68
2022/07/13 07:51:07;;;;;;;0.10;0.00;;;;;;;;;;5030104;28;20092;-68
2022/07/13 07:53:35;;;;;;;0.00;0.00;;;;;;;;;;5027393;28;20128;-69
2022/07/13 07:56:07;;;;;;;0.00;0.00;;;;;;;;;;5029344;28;20131;-70
2022/07/13 07:58:35;;;;;;;0.10;0.10;;;;;;;;;;5024149;28;20216;-69
2022/07/13 08:01:08;;;;;;;0.00;0.00;;;;;;;;;;5028586;28;20049;-68
2022/07/13 08:03:37;;;;;;;0.20;0.20;;;;;;;;;;5025261;28;20091;-69
2022/07/13 08:06:06;;;;;;;0.00;0.00;;;;;;;;;;5026001;28;20047;-69
2022/07/13 08:08:37;;;;;;;0.00;0.00;;;;;;;;;;5025022;28;20049;-69
2022/07/13 08:11:16;;;;;;;0.00;0.00;;;;;;;;;;5023903;28;20054;-70
2022/07/13 08:13:46;;;;;;;0.00;0.00;;;;;;;;;;5023681;28;20053;-70
2022/07/13 08:16:17;;;;;;;0.00;0.00;;;;;;;;;;5022411;28;20477;-69
2022/07/13 08:18:45;;;;;;;0.17;0.17;;;;;;;;;;5024290;28;20148;-69
2022/07/13 08:21:35;;;;;;;0.00;0.00;;;;;;;;;;5023771;28;20155;-69
2022/07/13 08:24:04;;;;;;;0.10;0.00;;;;;;;;;;5030231;28;20049;-68
2022/07/13 08:26:33;;;;;;;0.00;0.00;;;;;;;;;;5026628;28;20053;-69
2022/07/13 08:29:02;;;;;;;0.13;0.10;;;;;;;;;;5017319;28;20103;-70
2022/07/13 08:31:31;;;;;;;0.10;0.10;;;;;;;;;;5025041;28;20045;-68
2022/07/13 08:39:32;;;;;;;0.22;0.10;;;;;;;;;;4997777;28;20143;-69
2022/07/13 08:42:00;;;;;;;0.00;0.00;;;;;;;;;;5022860;28;20383;-69
2022/07/13 08:44:28;;;;;;;0.10;0.10;;;;;;;;;;5029071;28;20093;-69
2022/07/13 08:47:07;;;;;;;0.00;0.00;;;;;;;;;;5029976;28;20046;-69
2022/07/13 08:49:36;;;;;;;0.00;0.00;;;;;;;;;;5028940;28;20060;-70
2022/07/13 08:52:05;;;;;;;0.00;0.00;;;;;;;;;;5025157;28;20052;-69
2022/07/13 08:54:34;;;;;;;0.00;0.00;;;;;;;;;;5028684;28;20052;-69
2022/07/13 08:57:03;;;;;;;0.00;0.00;;;;;;;;;;5029239;28;20041;-69
2022/07/13 08:59:33;;;;;;;0.00;0.00;;;;;;;;;;5030122;28;20049;-69
2022/07/13 09:02:02;;;;;;;0.13;0.13;;;;;;;;;;5026672;28;20650;-69
2022/07/13 09:04:33;;;;;;;0.00;0.00;;;;;;;;;;5023448;28;20045;-69
2022/07/13 09:07:02;;;;;;;0.10;0.10;;;;;;;;;;5021265;28;20046;-69
2022/07/13 09:09:33;;;;;;;0.10;0.10;;;;;;;;;;5025726;28;20042;-69
2022/07/13 09:12:22;;;;;;;0.10;0.10;;;;;;;;;;5023435;28;20056;-69
2022/07/13 09:14:52;;;;;;;0.10;0.10;;;;;;;;;;5022029;28;20049;-69
2022/07/13 09:17:31;;;;;;;0.10;0.10;;;;;;;;;;5024237;28;20050;-71
2022/07/13 09:20:04;;;;;;;0.00;0.00;;;;;;;;;;5024608;28;20049;-71
2022/07/13 09:22:33;;;;;;;0.30;0.20;;;;;;;;;;5025983;28;20466;-70
2022/07/13 09:25:02;;;;;;;0.00;0.00;;;;;;;;;;5021915;28;20099;-70
2022/07/13 09:27:46;;;;;;;0.00;0.00;;;;;;;;;;5029253;28;20053;-71
2022/07/13 09:30:22;;;;;;;0.07;0.07;;;;;;;;;;5028881;28;20123;-69
2022/07/13 09:32:50;;;;;;;0.10;0.10;;;;;;;;;;5025690;28;20045;-70
2022/07/13 09:35:23;;;;;;;0.00;0.00;;;;;;;;;;5023672;28;20141;-69
2022/07/13 09:37:52;;;;;;;0.00;0.00;;;;;;;;;;5033114;28;20048;-69
2022/07/13 09:40:21;;;;;;;0.03;0.03;;;;;;;;;;5030464;28;20482;-69
2022/07/13 09:46:08;;;;;;;0.00;0.00;;;;;;;;;;5027651;28;20061;-70
2022/07/13 09:48:29;;;;;;;0.10;0.10;;;;;;;;;;5031764;28;20489;-70
2022/07/13 09:50:59;;;;;;;0.00;0.00;;;;;;;;;;5027946;28;20461;-69
2022/07/13 09:53:29;;;;;;;0.10;0.08;;;;;;;;;;5031541;28;20099;-71
2022/07/13 09:55:59;;;;;;;0.10;0.10;;;;;;;;;;5030914;28;20137;-69
2022/07/13 09:58:29;;;;;;;0.20;0.17;;;;;;;;;;5031312;28;20049;-69
2022/07/13 10:00:59;;;;;;;0.00;0.00;;;;;;;;;;5032219;28;20045;-70
2022/07/13 10:03:29;;;;;;;0.00;0.00;;;;;;;;;;5031717;28;20056;-70
2022/07/13 10:06:01;;;;;;;0.03;0.03;;;;;;;;;;5027611;28;20584;-72
2022/07/13 10:08:34;;;;;;;0.10;0.10;;;;;;;;;;5029018;28;20351;-70
2022/07/13 10:11:05;;;;;;;0.00;0.00;;;;;;;;;;5033040;28;20045;-70
2022/07/13 10:13:35;;;;;;;0.00;0.00;;;;;;;;;;5033608;28;20042;-69
2022/07/13 10:16:07;;;;;;;0.25;0.15;;;;;;;;;;5028047;28;20049;-70
2022/07/13 10:18:39;;;;;;;0.10;0.08;;;;;;;;;;5031577;28;20136;-70
2022/07/13 10:21:12;;;;;;;0.10;0.10;;;;;;;;;;5027696;28;20554;-70
2022/07/13 10:23:41;;;;;;;0.93;0.08;;;;;;;;;;5031942;28;20045;-70
2022/07/13 10:26:20;;;;;;;0.00;0.00;;;;;;;;;;5028086;28;20041;-72
2022/07/13 10:29:05;;;;;;;0.00;0.00;;;;;;;;;;5024307;28;20061;-72
2022/07/13 10:31:36;;;;;;;0.00;0.00;;;;;;;;;;5024345;28;20141;-70
2022/07/13 10:34:06;;;;;;;0.05;0.05;;;;;;;;;;5025440;28;20041;-69
2022/07/13 10:36:55;;;;;;;0.00;0.00;;;;;;;;;;5026961;28;20115;-69
2022/07/13 10:39:24;;;;;;;0.00;0.00;;;;;;;;;;5031849;28;20079;-69
2022/07/13 10:41:57;;;;;;;0.20;0.10;;;;;;;;;;5031406;28;20045;-70
2022/07/13 10:44:32;;;;;;;0.00;0.00;;;;;;;;;;5030044;28;20065;-69
2022/07/13 10:47:02;;;;;;;0.20;0.20;;;;;;;;;;5027697;28;20049;-69
2022/07/13 10:49:44;;;;;;;0.00;0.00;;;;;;;;;;5028903;28;20080;-69
2022/07/13 10:52:31;;;;;;;0.00;0.00;;;;;;;;;;5022887;28;20397;-68
2022/07/13 10:55:40;;;;;;;0.00;0.00;;;;;;;;;;5018495;28;20061;-68
2022/07/13 10:58:28;;;;;;;0.00;0.00;;;;;;;;;;5013238;28;20085;-68
2022/07/13 11:00:58;;;;;;;0.22;0.20;;;;;;;;;;5025598;28;20124;-68
2022/07/13 11:03:35;;;;;;;0.00;0.00;;;;;;;;;;5028705;28;20052;-68
2022/07/13 11:06:08;;;;;;;0.20;0.15;;;;;;;;;;5028595;28;20136;-68
2022/07/13 11:08:37;;;;;;;0.10;0.10;;;;;;;;;;5016851;28;20049;-69
2022/07/13 11:11:15;;;;;;;0.17;0.10;;;;;;;;;;5025955;28;20045;-68
2022/07/13 11:13:45;;;;;;;0.10;0.10;;;;;;;;;;5021210;28;20049;-68
2022/07/13 11:16:36;;;;;;;0.00;0.00;;;;;;;;;;5015699;28;20060;-68
2022/07/13 11:19:04;;;;;;;0.10;0.10;;;;;;;;;;5020845;28;20172;-68
2022/07/13 11:21:53;;;;;;;0.52;0.10;;;;;;;;;;5017845;28;20045;-68
2022/07/13 11:27:13;;;;;;;0.10;0.08;;;;;;;;;;5019515;28;20064;-69
2022/07/13 11:29:46;;;;;;;0.10;0.10;;;;;;;;;;5026557;28;20081;-68
2022/07/13 11:32:21;;;;;;;0.08;0.08;;;;;;;;;;5025836;28;20144;-68
2022/07/13 11:34:49;;;;;;;0.10;0.10;;;;;;;;;;5024972;28;20144;-70
2022/07/13 11:37:23;;;;;;;0.00;0.00;;;;;;;;;;5024537;28;20603;-68
2022/07/13 11:39:52;;;;;;;0.13;0.10;;;;;;;;;;5020809;28;20712;-67
2022/07/13 11:42:23;;;;;;;0.10;0.05;;;;;;;;;;5027291;28;20100;-68
2022/07/13 11:44:52;;;;;;;0.10;0.10;;;;;;;;;;5028894;28;20042;-68
2022/07/13 11:47:22;;;;;;;0.77;0.28;;;;;;;;;;5026514;28;20048;-68
2022/07/13 11:49:52;;;;;;;0.00;0.00;;;;;;;;;;5028835;28;20053;-68
2022/07/13 11:52:21;;;;;;;0.00;0.00;;;;;;;;;;5030452;28;20049;-69
2022/07/13 11:54:56;;;;;;;0.10;0.10;;;;;;;;;;5022198;28;20049;-68
2022/07/13 11:57:25;;;;;;;0.10;0.10;;;;;;;;;;5027110;28;20147;-68
2022/07/13 11:59:53;;;;;;;0.05;0.00;;;;;;;;;;5029139;28;20049;-68
2022/07/13 12:02:23;;;;;;;0.10;0.10;;;;;;;;;;5028580;28;20493;-68
2022/07/13 12:04:52;;;;;;;0.10;0.10;;;;;;;;;;5029163;28;20056;-70
2022/07/13 12:07:23;;;;;;;0.13;0.13;;;;;;;;;;5027595;28;20045;-67
2022/07/13 12:09:52;;;;;;;0.10;0.10;;;;;;;;;;5027936;28;20111;-67
2022/07/13 12:12:22;;;;;;;0.47;0.47;;;;;;;;;;5027388;28;20096;-68
2022/07/13 12:14:52;;;;;;;1.55;0.75;;;;;;;;;;5029240;28;20053;-68
2022/07/13 12:17:21;;;;;;;0.20;0.20;;;;;;;;;;5027196;28;20050;-68
2022/07/13 12:19:51;;;;;;;0.10;0.08;;;;;;;;;;5024099;28;20053;-68
2022/07/13 12:22:22;;;;;;;0.00;0.00;;;;;;;;;;5020800;28;20065;-70
2022/07/13 12:24:51;;;;;;;0.65;0.28;;;;;;;;;;5023791;28;20049;-68
2022/07/13 12:27:25;;;;;;;0.22;0.22;;;;;;;;;;5025548;28;20051;-67
2022/07/13 12:30:06;;;;;;;0.10;0.10;;;;;;;;;;5020909;28;20107;-69
2022/07/13 12:32:35;;;;;;;0.00;0.00;;;;;;;;;;5029279;28;20056;-67
2022/07/13 12:35:15;;;;;;;0.30;0.25;;;;;;;;;;5028029;28;20053;-68
2022/07/13 12:37:44;;;;;;;0.00;0.00;;;;;;;;;;5012153;28;20055;-69
2022/07/13 12:40:33;;;;;;;0.20;0.10;;;;;;;;;;5027929;28;20096;-68
2022/07/13 12:43:01;;;;;;;0.08;0.05;;;;;;;;;;5029304;28;20493;-68
2022/07/13 12:45:31;;;;;;;0.10;0.10;;;;;;;;;;5027821;28;20045;-68
2022/07/13 12:48:13;;;;;;;0.10;0.10;;;;;;;;;;5021003;28;20037;-67
2022/07/13 12:50:43;;;;;;;0.20;0.20;;;;;;;;;;5029206;28;20046;-67
2022/07/13 12:53:12;;;;;;;0.03;0.03;;;;;;;;;;5022931;28;20080;-68
2022/07/13 12:55:53;;;;;;;0.05;0.05;;;;;;;;;;5025885;28;20456;-68
2022/07/13 12:58:40;;;;;;;0.30;0.30;;;;;;;;;;5026563;28;20065;-68
2022/07/13 13:01:09;;;;;;;0.13;0.13;;;;;;;;;;5022477;28;20064;-68
2022/07/13 13:03:38;;;;;;;0.00;0.00;;;;;;;;;;5028845;28;20046;-68
2022/07/13 13:06:08;;;;;;;0.10;0.10;;;;;;;;;;5028484;28;20053;-68
2022/07/13 13:08:37;;;;;;;0.10;0.10;;;;;;;;;;5038135;28;20045;-68
2022/07/13 13:11:05;;;;;;;0.10;0.10;;;;;;;;;;5028356;28;20057;-68
2022/07/13 13:13:34;;;;;;;0.00;0.00;;;;;;;;;;5024975;28;20049;-68
2022/07/13 13:16:05;;;;;;;0.38;0.30;;;;;;;;;;5026331;28;20436;-69
2022/07/13 13:18:33;;;;;;;0.10;0.10;;;;;;;;;;5028130;28;20060;-68
2022/07/13 13:21:04;;;;;;;0.10;0.10;;;;;;;;;;5026575;28;20057;-68
2022/07/13 13:23:34;;;;;;;0.90;0.35;;;;;;;;;;5026863;28;20049;-68
2022/07/13 13:26:05;;;;;;;0.43;0.25;;;;;;;;;;5028765;28;20037;-68
2022/07/13 13:31:39;;;;;;;0.10;0.10;;;;;;;;;;5025846;28;20045;-68
2022/07/13 13:34:08;;;;;;;0.00;0.00;;;;;;;;;;5022872;28;20132;-67
2022/07/13 13:36:53;;;;;;;0.13;0.13;;;;;;;;;;5029216;28;20092;-68
2022/07/13 13:39:23;;;;;;;0.08;0.08;;;;;;;;;;5024267;28;20054;-68
2022/07/13 13:41:52;;;;;;;0.10;0.03;;;;;;;;;;5028022;28;20111;-68
2022/07/13 13:44:20;;;;;;;0.20;0.20;;;;;;;;;;5029895;28;20382;-67
2022/07/13 13:46:49;;;;;;;0.20;0.20;;;;;;;;;;5026795;28;20057;-68
2022/07/13 13:49:18;;;;;;;0.10;0.10;;;;;;;;;;5026234;28;20046;-68
2022/07/13 13:51:47;;;;;;;0.10;0.10;;;;;;;;;;5027904;28;20045;-68
2022/07/13 13:54:26;;;;;;;0.10;0.10;;;;;;;;;;5018558;28;20483;-67
2022/07/13 13:56:55;;;;;;;0.20;0.10;;;;;;;;;;5023937;28;20119;-68
2022/07/13 13:59:24;;;;;;;0.35;0.20;;;;;;;;;;5025939;28;20053;-67
2022/07/13 14:01:52;;;;;;;0.10;0.10;;;;;;;;;;5024786;28;20057;-68
2022/07/13 14:04:21;;;;;;;0.05;0.05;;;;;;;;;;5030004;28;20045;-67
2022/07/13 14:06:50;;;;;;;0.20;0.10;;;;;;;;;;5026890;28;20505;-68
2022/07/13 14:09:18;;;;;;;0.17;0.17;;;;;;;;;;5027136;28;20069;-69
2022/07/13 14:11:48;;;;;;;0.10;0.10;;;;;;;;;;5032446;28;20084;-67
2022/07/13 14:14:17;;;;;;;0.95;0.20;;;;;;;;;;5025719;28;20046;-69
2022/07/13 14:16:46;;;;;;;0.13;0.10;;;;;;;;;;5030818;28;20052;-68
2022/07/13 14:19:14;;;;;;;0.30;0.20;;;;;;;;;;5029985;28;20069;-68
2022/07/13 14:21:43;;;;;;;0.10;0.10;;;;;;;;;;5030880;28;20547;-68
2022/07/13 14:24:12;;;;;;;0.10;0.10;;;;;;;;;;5030892;28;20100;-68
2022/07/13 14:26:50;;;;;;;0.30;0.30;;;;;;;;;;5028979;28;20136;-69
2022/07/13 14:29:31;;;;;;;0.10;0.10;;;;;;;;;;5014058;28;20054;-69
2022/07/13 14:32:00;;;;;;;0.68;0.30;;;;;;;;;;5033069;28;20052;-68
2022/07/13 14:34:50;;;;;;;0.32;0.32;;;;;;;;;;5026223;28;20053;-68
2022/07/13 14:37:23;;;;;;;0.20;0.20;;;;;;;;;;5028982;28;20049;-68
2022/07/13 14:39:52;;;;;;;0.28;0.20;;;;;;;;;;5025328;28;20505;-68
2022/07/13 14:42:23;;;;;;;0.32;0.20;;;;;;;;;;5030486;28;20140;-69
2022/07/13 14:44:52;;;;;;;0.10;0.10;;;;;;;;;;5030355;28;20049;-68
2022/07/13 14:47:21;;;;;;;0.15;0.15;;;;;;;;;;5029534;28;20139;-68
2022/07/13 14:50:11;;;;;;;0.25;0.20;;;;;;;;;;5031843;28;20551;-68
2022/07/13 14:53:00;;;;;;;0.10;0.10;;;;;;;;;;5028949;28;20053;-67
2022/07/13 14:55:29;;;;;;;0.32;0.20;;;;;;;;;;5028443;28;20057;-68
2022/07/13 14:57:59;;;;;;;0.15;0.15;;;;;;;;;;5031183;28;20513;-68
2022/07/13 15:00:28;;;;;;;0.00;0.00;;;;;;;;;;5025355;28;20053;-67
2022/07/13 15:02:56;;;;;;;0.08;0.08;;;;;;;;;;5030802;28;20060;-68
2022/07/13 15:05:28;;;;;;;0.08;0.08;;;;;;;;;;5025331;28;20148;-68
2022/07/13 15:07:56;;;;;;;0.10;0.10;;;;;;;;;;5023437;28;20054;-68
2022/07/13 15:10:26;;;;;;;0.10;0.10;;;;;;;;;;5021755;28;20045;-68
2022/07/13 15:12:58;;;;;;;0.30;0.20;;;;;;;;;;5029667;28;20077;-68
2022/07/13 15:15:29;;;;;;;0.10;0.10;;;;;;;;;;5029854;28;20413;-68
2022/07/13 15:18:02;;;;;;;0.00;0.00;;;;;;;;;;5028592;28;20568;-68
2022/07/13 15:20:36;;;;;;;0.47;0.10;;;;;;;;;;5030755;28;20052;-67